Time;durP1;ratioP1;P1;durP2;ratioP2;P2;SDS_P1;SDS_P2;PMS_P1;PMS_P2;Temp;Humidity;BMP_temperature;BMP_pressure;BME280_temperature;BME280_humidity;BME280_pressure;Samples;Min_cycle;Max_cycle;Signal;HPM_P1;HPM_P2
2021/12/31 00:02:00;;;;;;;55.22;37.17;;;;;;;;;;5090888;28;20074;-60
2021/12/31 00:04:25;;;;;;;48.92;35.55;;;;;;;;;;5093050;28;20040;-60
2021/12/31 00:06:51;;;;;;;51.53;35.97;;;;;;;;;;5093113;28;20016;-60
2021/12/31 00:09:16;;;;;;;53.25;37.80;;;;;;;;;;5093087;28;20038;-61
2021/12/31 00:11:42;;;;;;;47.95;33.80;;;;;;;;;;5092945;28;20027;-62
2021/12/31 00:14:07;;;;;;;46.47;33.33;;;;;;;;;;5093037;28;20032;-61
2021/12/31 00:16:33;;;;;;;53.05;34.47;;;;;;;;;;5092797;28;20039;-62
2021/12/31 00:18:58;;;;;;;48.00;35.67;;;;;;;;;;5092814;28;20036;-60
2021/12/31 00:21:23;;;;;;;46.40;34.28;;;;;;;;;;5092760;28;20031;-60
2021/12/31 00:23:50;;;;;;;51.15;35.47;;;;;;;;;;5092809;28;20032;-60
2021/12/31 00:26:15;;;;;;;55.72;39.47;;;;;;;;;;5074627;28;20181;-60
2021/12/31 00:28:41;;;;;;;56.25;40.55;;;;;;;;;;5093043;28;20130;-61
2021/12/31 00:31:06;;;;;;;134.45;39.45;;;;;;;;;;5092533;28;20028;-60
2021/12/31 00:33:31;;;;;;;49.47;37.70;;;;;;;;;;5092576;28;20036;-61
2021/12/31 00:35:59;;;;;;;48.63;35.88;;;;;;;;;;5092602;28;20471;-60
2021/12/31 00:38:24;;;;;;;46.00;35.15;;;;;;;;;;5092918;28;20036;-59
2021/12/31 00:40:50;;;;;;;44.00;36.35;;;;;;;;;;5074570;28;20475;-61
2021/12/31 00:43:15;;;;;;;45.92;34.70;;;;;;;;;;5092476;28;20036;-61
2021/12/31 00:45:41;;;;;;;46.15;34.95;;;;;;;;;;5092245;28;20024;-60
2021/12/31 00:48:10;;;;;;;53.50;36.25;;;;;;;;;;5074337;28;20055;-60
2021/12/31 00:50:36;;;;;;;47.55;34.92;;;;;;;;;;5092369;28;20391;-60
2021/12/31 00:53:02;;;;;;;45.55;35.53;;;;;;;;;;5091258;28;20039;-60
2021/12/31 00:55:27;;;;;;;48.03;37.50;;;;;;;;;;5092464;28;20028;-60
2021/12/31 00:57:53;;;;;;;45.83;35.25;;;;;;;;;;5092389;28;20090;-62
2021/12/31 01:00:18;;;;;;;44.97;33.28;;;;;;;;;;5092119;28;20016;-61
2021/12/31 01:02:46;;;;;;;44.10;33.55;;;;;;;;;;5092184;28;20036;-61
2021/12/31 01:05:12;;;;;;;46.85;33.35;;;;;;;;;;5092492;28;20114;-61
2021/12/31 01:07:38;;;;;;;42.55;31.75;;;;;;;;;;5092261;28;20043;-60
2021/12/31 01:10:04;;;;;;;46.30;35.20;;;;;;;;;;5092223;28;20036;-60
2021/12/31 01:12:30;;;;;;;42.65;33.13;;;;;;;;;;5092283;28;20020;-60
2021/12/31 01:15:03;;;;;;;45.35;34.33;;;;;;;;;;5092043;28;20038;-61
2021/12/31 01:20:14;;;;;;;42.00;29.88;;;;;;;;;;5092211;28;20109;-60
2021/12/31 01:22:39;;;;;;;39.55;29.13;;;;;;;;;;5073948;28;20040;-61
2021/12/31 01:25:06;;;;;;;44.05;32.97;;;;;;;;;;5092025;28;20032;-60
2021/12/31 01:27:33;;;;;;;39.75;30.90;;;;;;;;;;5091597;28;20043;-60
2021/12/31 01:29:58;;;;;;;41.58;30.70;;;;;;;;;;5092405;28;20487;-60
2021/12/31 01:32:24;;;;;;;42.53;31.05;;;;;;;;;;5092008;28;20047;-60
2021/12/31 01:34:50;;;;;;;43.35;28.92;;;;;;;;;;5073761;28;20028;-60
2021/12/31 01:37:15;;;;;;;41.50;29.63;;;;;;;;;;5073644;28;20482;-61
2021/12/31 01:39:42;;;;;;;36.50;28.35;;;;;;;;;;5091921;28;20111;-60
2021/12/31 01:42:08;;;;;;;39.17;29.70;;;;;;;;;;5073430;28;20036;-60
2021/12/31 01:44:38;;;;;;;43.33;31.70;;;;;;;;;;5073563;28;20036;-59
2021/12/31 01:47:10;;;;;;;36.75;29.50;;;;;;;;;;5090605;28;20036;-61
2021/12/31 01:49:38;;;;;;;42.15;27.63;;;;;;;;;;5073559;28;20032;-60
2021/12/31 01:52:05;;;;;;;36.83;26.90;;;;;;;;;;5091601;28;20048;-60
2021/12/31 01:54:31;;;;;;;31.42;25.33;;;;;;;;;;5091687;28;20032;-61
2021/12/31 01:56:57;;;;;;;35.85;25.38;;;;;;;;;;5091590;28;20032;-60
2021/12/31 01:59:23;;;;;;;32.65;24.40;;;;;;;;;;5091887;28;20040;-63
2021/12/31 02:01:48;;;;;;;32.53;25.08;;;;;;;;;;5093280;28;20068;-60
2021/12/31 02:04:14;;;;;;;33.55;24.10;;;;;;;;;;5095097;28;20032;-61
2021/12/31 02:06:39;;;;;;;38.55;26.25;;;;;;;;;;5059267;28;20105;-60
2021/12/31 02:09:05;;;;;;;31.40;22.30;;;;;;;;;;5095144;28;20378;-60
2021/12/31 02:11:31;;;;;;;34.53;25.00;;;;;;;;;;5093421;28;20042;-60
2021/12/31 02:13:57;;;;;;;40.45;27.83;;;;;;;;;;5094862;28;20028;-61
2021/12/31 02:16:23;;;;;;;37.92;27.45;;;;;;;;;;5076669;28;20031;-60
2021/12/31 02:18:48;;;;;;;34.45;26.05;;;;;;;;;;5059874;28;20127;-61
2021/12/31 02:21:14;;;;;;;35.28;25.50;;;;;;;;;;5076427;28;20030;-61
2021/12/31 02:23:46;;;;;;;34.85;25.45;;;;;;;;;;5076437;28;20043;-60
2021/12/31 02:26:12;;;;;;;33.20;24.38;;;;;;;;;;5076455;28;20047;-61
2021/12/31 02:28:38;;;;;;;29.38;23.40;;;;;;;;;;5076746;28;20024;-61
2021/12/31 02:31:03;;;;;;;28.85;23.83;;;;;;;;;;5094616;28;20126;-60
2021/12/31 02:33:33;;;;;;;34.20;23.77;;;;;;;;;;5094646;28;20077;-60
2021/12/31 02:36:04;;;;;;;37.08;28.20;;;;;;;;;;5076361;28;20039;-62
2021/12/31 02:38:29;;;;;;;33.45;25.63;;;;;;;;;;5076128;28;20032;-61
2021/12/31 02:40:55;;;;;;;33.55;24.27;;;;;;;;;;5076335;28;20486;-61
2021/12/31 02:43:20;;;;;;;32.70;23.70;;;;;;;;;;5094428;28;20109;-61
2021/12/31 02:45:47;;;;;;;32.85;23.05;;;;;;;;;;5076411;28;20028;-60
2021/12/31 02:48:13;;;;;;;31.00;23.05;;;;;;;;;;5094555;28;20035;-60
2021/12/31 02:50:40;;;;;;;36.75;23.30;;;;;;;;;;5076133;28;20399;-61
2021/12/31 02:53:11;;;;;;;35.47;24.65;;;;;;;;;;5094609;28;20106;-60
2021/12/31 02:55:37;;;;;;;32.70;24.00;;;;;;;;;;5094048;28;20066;-60
2021/12/31 02:58:04;;;;;;;34.30;22.30;;;;;;;;;;5094218;28;20356;-60
2021/12/31 03:00:30;;;;;;;31.60;21.38;;;;;;;;;;5094097;28;20119;-60
2021/12/31 03:02:56;;;;;;;26.88;21.40;;;;;;;;;;5094089;28;20031;-60
2021/12/31 03:05:22;;;;;;;31.23;21.63;;;;;;;;;;5076178;28;20391;-60
2021/12/31 03:07:47;;;;;;;36.00;23.67;;;;;;;;;;5093799;28;20039;-60
2021/12/31 03:10:14;;;;;;;31.30;21.63;;;;;;;;;;5093989;28;20043;-61
2021/12/31 03:12:40;;;;;;;27.67;19.73;;;;;;;;;;5092899;28;20039;-60
2021/12/31 03:15:05;;;;;;;34.88;20.98;;;;;;;;;;5093930;28;20035;-60
2021/12/31 03:17:31;;;;;;;29.67;20.92;;;;;;;;;;5075623;28;20051;-61
2021/12/31 03:20:08;;;;;;;24.33;17.35;;;;;;;;;;5092691;28;20035;-60
2021/12/31 03:22:34;;;;;;;26.40;18.42;;;;;;;;;;5093638;28;20480;-61
2021/12/31 03:24:59;;;;;;;23.63;17.98;;;;;;;;;;5075792;28;20036;-60
2021/12/31 03:27:25;;;;;;;26.85;19.45;;;;;;;;;;5093678;28;20365;-60
2021/12/31 03:29:50;;;;;;;34.00;21.77;;;;;;;;;;5093372;28;20060;-60
2021/12/31 03:32:15;;;;;;;30.25;21.80;;;;;;;;;;5093686;28;20028;-60
2021/12/31 03:34:41;;;;;;;29.00;19.67;;;;;;;;;;5093514;28;20483;-61
2021/12/31 03:37:06;;;;;;;26.20;19.25;;;;;;;;;;5093339;28;20020;-61
2021/12/31 03:39:31;;;;;;;26.08;17.65;;;;;;;;;;5093557;28;20391;-60
2021/12/31 03:41:57;;;;;;;23.88;17.63;;;;;;;;;;5093530;28;20031;-60
2021/12/31 03:44:22;;;;;;;26.95;18.08;;;;;;;;;;5093357;28;20035;-59
2021/12/31 03:46:47;;;;;;;25.42;16.73;;;;;;;;;;5093298;28;20499;-61
2021/12/31 03:49:13;;;;;;;28.50;18.58;;;;;;;;;;5093353;28;20089;-60
2021/12/31 03:51:38;;;;;;;25.40;19.45;;;;;;;;;;5074974;28;20063;-60
2021/12/31 03:54:04;;;;;;;27.63;17.88;;;;;;;;;;5093448;28;20071;-60
2021/12/31 03:56:32;;;;;;;23.83;14.43;;;;;;;;;;5093208;28;20539;-61
2021/12/31 03:58:59;;;;;;;21.35;14.40;;;;;;;;;;5093233;28;20028;-62
2021/12/31 04:01:24;;;;;;;20.38;14.63;;;;;;;;;;5093188;28;20042;-61
2021/12/31 04:03:50;;;;;;;20.20;15.32;;;;;;;;;;5066270;28;20115;-61
2021/12/31 04:06:16;;;;;;;17.90;12.77;;;;;;;;;;5069391;28;20483;-62
2021/12/31 04:08:41;;;;;;;17.95;10.48;;;;;;;;;;5068738;28;20033;-61
2021/12/31 04:11:10;;;;;;;18.05;11.20;;;;;;;;;;5069391;28;20079;-64
2021/12/31 04:13:35;;;;;;;15.82;9.98;;;;;;;;;;5069534;28;20021;-60
2021/12/31 04:16:00;;;;;;;18.00;11.23;;;;;;;;;;5068912;28;20033;-60
2021/12/31 04:18:26;;;;;;;12.85;9.65;;;;;;;;;;5069016;28;20041;-60
2021/12/31 04:20:55;;;;;;;13.02;9.82;;;;;;;;;;5068839;28;20094;-60
2021/12/31 04:23:33;;;;;;;15.00;9.25;;;;;;;;;;5068714;28;20051;-59
2021/12/31 04:26:00;;;;;;;13.57;10.20;;;;;;;;;;5034501;28;20036;-61
2021/12/31 04:28:27;;;;;;;17.73;11.07;;;;;;;;;;5050952;28;20040;-60
2021/12/31 04:30:53;;;;;;;22.20;13.23;;;;;;;;;;5068490;28;20484;-61
2021/12/31 04:33:18;;;;;;;18.30;11.70;;;;;;;;;;5068883;28;20039;-60
2021/12/31 04:35:44;;;;;;;21.52;12.25;;;;;;;;;;5068350;28;20032;-65
2021/12/31 04:38:10;;;;;;;19.38;13.65;;;;;;;;;;5050932;28;20040;-62
2021/12/31 04:40:35;;;;;;;18.85;12.32;;;;;;;;;;5068596;28;20044;-62
2021/12/31 04:43:00;;;;;;;16.85;10.98;;;;;;;;;;5068433;28;20059;-61
2021/12/31 04:45:26;;;;;;;16.25;9.43;;;;;;;;;;5068744;28;20078;-61
2021/12/31 04:47:51;;;;;;;14.45;9.45;;;;;;;;;;5050651;28;20041;-60
2021/12/31 04:50:17;;;;;;;13.43;10.30;;;;;;;;;;5068482;28;20032;-61
2021/12/31 04:52:43;;;;;;;15.18;10.02;;;;;;;;;;5068198;28;20102;-60
2021/12/31 04:55:09;;;;;;;14.20;10.32;;;;;;;;;;5072784;28;20101;-61
2021/12/31 04:57:34;;;;;;;15.93;9.50;;;;;;;;;;5070133;28;20036;-62
2021/12/31 05:00:00;;;;;;;14.70;9.65;;;;;;;;;;5088897;28;20032;-64
2021/12/31 05:02:25;;;;;;;15.88;10.65;;;;;;;;;;5088538;28;20081;-60
2021/12/31 05:04:51;;;;;;;18.35;10.65;;;;;;;;;;5087879;28;20403;-61
2021/12/31 05:07:16;;;;;;;16.67;11.52;;;;;;;;;;5088452;28;20075;-61
2021/12/31 05:09:41;;;;;;;22.25;12.25;;;;;;;;;;5088808;28;20158;-60
2021/12/31 05:12:09;;;;;;;19.10;11.77;;;;;;;;;;5088195;28;20035;-61
2021/12/31 05:14:35;;;;;;;16.48;10.98;;;;;;;;;;5088202;28;20028;-61
2021/12/31 05:17:00;;;;;;;12.65;9.00;;;;;;;;;;5088076;28;20387;-60
2021/12/31 05:19:26;;;;;;;11.95;7.90;;;;;;;;;;5070152;28;20047;-62
2021/12/31 05:21:51;;;;;;;12.50;9.02;;;;;;;;;;5088139;28;20028;-62
2021/12/31 05:24:17;;;;;;;16.02;8.48;;;;;;;;;;5070288;28;20052;-60
2021/12/31 05:26:43;;;;;;;16.20;9.57;;;;;;;;;;5088252;28;20028;-60
2021/12/31 05:29:09;;;;;;;14.57;8.02;;;;;;;;;;5088061;28;20097;-66
2021/12/31 05:31:34;;;;;;;14.40;8.98;;;;;;;;;;5070316;28;20032;-61
2021/12/31 05:34:00;;;;;;;16.35;10.45;;;;;;;;;;5088064;28;20474;-60
2021/12/31 05:36:25;;;;;;;16.58;9.88;;;;;;;;;;5089573;28;20089;-60
2021/12/31 05:38:51;;;;;;;14.68;10.50;;;;;;;;;;5091382;28;20066;-60
2021/12/31 05:41:16;;;;;;;16.52;9.98;;;;;;;;;;5091680;28;20382;-60
2021/12/31 05:43:42;;;;;;;14.77;9.88;;;;;;;;;;5091452;28;20032;-61
2021/12/31 05:46:07;;;;;;;14.85;9.65;;;;;;;;;;5091291;28;20032;-61
2021/12/31 05:48:32;;;;;;;11.57;8.88;;;;;;;;;;5091197;28;20040;-61
2021/12/31 05:50:58;;;;;;;12.65;8.13;;;;;;;;;;5091245;28;20475;-60
2021/12/31 05:53:23;;;;;;;12.30;6.78;;;;;;;;;;5091235;28;20028;-61
2021/12/31 05:55:49;;;;;;;12.13;7.15;;;;;;;;;;5091408;28;20078;-61
2021/12/31 05:58:14;;;;;;;14.32;8.65;;;;;;;;;;5091455;28;20036;-61
2021/12/31 06:00:40;;;;;;;12.48;8.70;;;;;;;;;;5091068;28;20466;-62
2021/12/31 06:03:06;;;;;;;14.55;8.95;;;;;;;;;;5091485;28;20032;-63
2021/12/31 06:05:31;;;;;;;12.73;9.35;;;;;;;;;;5072862;28;20040;-61
2021/12/31 06:07:57;;;;;;;12.82;8.98;;;;;;;;;;5091636;28;20100;-60
2021/12/31 06:10:26;;;;;;;14.63;8.48;;;;;;;;;;5072596;28;20044;-60
2021/12/31 06:12:55;;;;;;;13.13;9.15;;;;;;;;;;5090712;28;20973;-61
2021/12/31 06:15:21;;;;;;;14.55;8.13;;;;;;;;;;5072992;28;20048;-60
2021/12/31 06:17:46;;;;;;;15.88;8.48;;;;;;;;;;5091141;28;20051;-62
2021/12/31 06:20:12;;;;;;;14.23;8.70;;;;;;;;;;5090930;28;20486;-62
2021/12/31 06:22:37;;;;;;;16.30;8.95;;;;;;;;;;5090682;28;20082;-61
2021/12/31 06:25:03;;;;;;;18.95;8.98;;;;;;;;;;5090649;28;20040;-61
2021/12/31 06:27:29;;;;;;;13.93;8.48;;;;;;;;;;5072879;28;20028;-65
2021/12/31 06:29:54;;;;;;;13.27;8.02;;;;;;;;;;5056165;28;20044;-60
2021/12/31 06:32:19;;;;;;;13.50;8.35;;;;;;;;;;5090875;28;20024;-60
2021/12/31 06:34:45;;;;;;;15.70;8.27;;;;;;;;;;5090367;28;20036;-61
2021/12/31 06:37:10;;;;;;;16.00;9.25;;;;;;;;;;5090412;28;20036;-62
2021/12/31 06:39:36;;;;;;;17.10;9.50;;;;;;;;;;5072864;28;20074;-62
2021/12/31 06:42:03;;;;;;;17.70;11.00;;;;;;;;;;5090608;28;20051;-62
2021/12/31 06:44:32;;;;;;;13.45;9.52;;;;;;;;;;5072400;28;20032;-63
2021/12/31 06:46:57;;;;;;;14.68;9.32;;;;;;;;;;5090502;28;20485;-61
2021/12/31 06:49:22;;;;;;;13.77;9.68;;;;;;;;;;5090558;28;20047;-60
2021/12/31 06:51:48;;;;;;;13.30;8.98;;;;;;;;;;5090467;28;20111;-61
2021/12/31 06:54:13;;;;;;;13.23;9.68;;;;;;;;;;5072347;28;20125;-60
2021/12/31 06:56:39;;;;;;;13.80;8.80;;;;;;;;;;5090499;28;20036;-60
2021/12/31 06:59:04;;;;;;;12.55;9.18;;;;;;;;;;5090596;28;20036;-61
2021/12/31 07:01:29;;;;;;;15.10;9.88;;;;;;;;;;5090649;28;20039;-60
2021/12/31 07:03:55;;;;;;;27.05;11.77;;;;;;;;;;5089994;28;20036;-61
2021/12/31 07:06:20;;;;;;;15.98;9.35;;;;;;;;;;5090029;28;20077;-60
2021/12/31 07:08:46;;;;;;;14.73;8.57;;;;;;;;;;5089798;28;20481;-61
2021/12/31 07:11:11;;;;;;;17.15;9.25;;;;;;;;;;5090102;28;20024;-64
2021/12/31 07:13:37;;;;;;;20.08;9.85;;;;;;;;;;5090428;28;20032;-61
2021/12/31 07:16:03;;;;;;;21.70;11.10;;;;;;;;;;5090306;28;20529;-61
2021/12/31 07:18:29;;;;;;;22.15;10.77;;;;;;;;;;5090217;28;20040;-66
2021/12/31 07:20:54;;;;;;;27.88;11.20;;;;;;;;;;5089495;28;20467;-62
2021/12/31 07:23:20;;;;;;;23.25;10.10;;;;;;;;;;5071655;28;20029;-62
2021/12/31 07:25:46;;;;;;;19.58;8.98;;;;;;;;;;5089781;28;20020;-62
2021/12/31 07:28:12;;;;;;;14.57;7.72;;;;;;;;;;5089874;28;20046;-62
2021/12/31 07:30:38;;;;;;;16.35;7.75;;;;;;;;;;5071661;28;20082;-62
2021/12/31 07:33:03;;;;;;;15.25;6.72;;;;;;;;;;5089856;28;20499;-60
2021/12/31 07:35:29;;;;;;;15.00;7.45;;;;;;;;;;5089470;28;20028;-60
2021/12/31 07:37:56;;;;;;;15.30;7.40;;;;;;;;;;5089909;28;20032;-61
2021/12/31 07:40:28;;;;;;;18.55;7.18;;;;;;;;;;5089930;28;20024;-61
2021/12/31 07:42:54;;;;;;;17.00;7.55;;;;;;;;;;5089661;28;20482;-61
2021/12/31 07:45:19;;;;;;;15.30;7.13;;;;;;;;;;5089610;28;20097;-62
2021/12/31 07:47:45;;;;;;;16.17;7.47;;;;;;;;;;5089752;28;20093;-64
2021/12/31 07:50:11;;;;;;;21.85;7.95;;;;;;;;;;5089505;28;20032;-61
2021/12/31 07:52:37;;;;;;;14.13;7.00;;;;;;;;;;5089541;28;20481;-61
2021/12/31 07:55:02;;;;;;;20.75;7.13;;;;;;;;;;5089813;28;20028;-61
2021/12/31 07:57:28;;;;;;;17.98;7.20;;;;;;;;;;5089580;28;20085;-61
2021/12/31 07:59:53;;;;;;;15.55;7.22;;;;;;;;;;5088641;28;20028;-61
2021/12/31 08:02:18;;;;;;;14.90;7.50;;;;;;;;;;5089480;28;20468;-62
2021/12/31 08:04:44;;;;;;;17.58;7.45;;;;;;;;;;5088927;28;20031;-61
2021/12/31 08:07:10;;;;;;;13.95;7.40;;;;;;;;;;5089362;28;20153;-64
2021/12/31 08:09:35;;;;;;;12.63;6.65;;;;;;;;;;5089029;28;20052;-61
2021/12/31 08:12:00;;;;;;;16.08;8.10;;;;;;;;;;5089071;28;20043;-60
2021/12/31 08:14:26;;;;;;;13.02;7.90;;;;;;;;;;5089148;28;20364;-60
2021/12/31 08:16:51;;;;;;;18.05;8.82;;;;;;;;;;5087601;28;20084;-62
2021/12/31 08:19:17;;;;;;;14.30;8.30;;;;;;;;;;5089045;28;20027;-60
2021/12/31 08:21:42;;;;;;;13.95;7.93;;;;;;;;;;5089150;28;20082;-60
2021/12/31 08:24:07;;;;;;;19.02;8.57;;;;;;;;;;5088995;28;20024;-61
2021/12/31 08:26:33;;;;;;;13.10;8.25;;;;;;;;;;5089190;28;20101;-61
2021/12/31 08:28:58;;;;;;;14.93;9.10;;;;;;;;;;5088883;28;20106;-63
2021/12/31 08:31:24;;;;;;;16.23;9.02;;;;;;;;;;5087982;28;20427;-60
2021/12/31 08:33:49;;;;;;;13.93;8.63;;;;;;;;;;5088819;28;20027;-60
2021/12/31 08:36:14;;;;;;;14.23;7.95;;;;;;;;;;5088935;28;20040;-61
2021/12/31 08:38:40;;;;;;;14.73;7.80;;;;;;;;;;5088546;28;20039;-65
2021/12/31 08:41:05;;;;;;;14.45;7.90;;;;;;;;;;5077967;28;20033;-63
2021/12/31 08:43:31;;;;;;;18.73;8.35;;;;;;;;;;5067122;28;20036;-61
2021/12/31 08:45:56;;;;;;;15.30;8.13;;;;;;;;;;5075223;28;20099;-61
2021/12/31 08:48:22;;;;;;;17.23;8.88;;;;;;;;;;5086446;28;20174;-62
2021/12/31 08:50:47;;;;;;;12.77;7.85;;;;;;;;;;5086797;28;20125;-62
2021/12/31 08:53:14;;;;;;;11.20;7.32;;;;;;;;;;5087025;28;20039;-61
2021/12/31 08:55:40;;;;;;;14.02;7.03;;;;;;;;;;5084699;28;20039;-62
2021/12/31 08:58:06;;;;;;;18.90;7.35;;;;;;;;;;5086775;28;20028;-63
2021/12/31 09:00:31;;;;;;;18.65;7.63;;;;;;;;;;5086022;28;20119;-64
2021/12/31 09:02:57;;;;;;;16.77;8.35;;;;;;;;;;5087792;28;20043;-62
2021/12/31 09:05:23;;;;;;;16.88;7.50;;;;;;;;;;5068828;28;20036;-61
2021/12/31 09:07:48;;;;;;;17.13;7.60;;;;;;;;;;5086119;28;20040;-64
2021/12/31 09:10:14;;;;;;;15.45;7.28;;;;;;;;;;5068310;28;20028;-62
2021/12/31 09:12:40;;;;;;;14.98;7.82;;;;;;;;;;5070877;28;20055;-63
2021/12/31 09:15:06;;;;;;;16.40;7.28;;;;;;;;;;5089932;28;20158;-64
2021/12/31 09:17:31;;;;;;;19.05;8.13;;;;;;;;;;5089853;28;20031;-64
2021/12/31 09:19:56;;;;;;;14.05;7.10;;;;;;;;;;5090287;28;20032;-64
2021/12/31 09:22:22;;;;;;;18.95;7.28;;;;;;;;;;5092011;28;20040;-59
2021/12/31 09:24:50;;;;;;;16.95;7.60;;;;;;;;;;5091641;28;20032;-59
2021/12/31 09:27:16;;;;;;;16.57;7.43;;;;;;;;;;5091773;28;20407;-60
2021/12/31 09:29:41;;;;;;;14.68;6.78;;;;;;;;;;5091928;28;20088;-59
2021/12/31 09:32:08;;;;;;;14.07;6.55;;;;;;;;;;5073841;28;20036;-58
2021/12/31 09:34:34;;;;;;;12.57;6.35;;;;;;;;;;5091349;28;20027;-58
2021/12/31 09:36:59;;;;;;;12.43;6.57;;;;;;;;;;5091792;28;20375;-58
2021/12/31 09:39:25;;;;;;;14.80;6.63;;;;;;;;;;5091347;28;20052;-58
2021/12/31 09:41:51;;;;;;;10.88;5.53;;;;;;;;;;5091128;28;20067;-58
2021/12/31 09:44:19;;;;;;;11.75;5.60;;;;;;;;;;5073176;28;20047;-58
2021/12/31 09:46:45;;;;;;;9.45;4.50;;;;;;;;;;5072827;28;20475;-58
2021/12/31 09:49:10;;;;;;;7.72;4.03;;;;;;;;;;5091488;28;20078;-58
2021/12/31 09:51:40;;;;;;;8.93;5.68;;;;;;;;;;5091368;28;20028;-58
2021/12/31 09:54:06;;;;;;;9.30;4.30;;;;;;;;;;5072482;28;20598;-61
2021/12/31 09:56:37;;;;;;;11.30;4.35;;;;;;;;;;5071392;28;20036;-65
2021/12/31 09:59:02;;;;;;;10.68;3.55;;;;;;;;;;5089331;28;20040;-57
2021/12/31 10:01:28;;;;;;;8.93;3.97;;;;;;;;;;5090773;28;20028;-58
2021/12/31 10:03:56;;;;;;;7.78;3.72;;;;;;;;;;5090636;28;20471;-57
2021/12/31 10:06:22;;;;;;;8.52;3.92;;;;;;;;;;5090031;28;20489;-60
2021/12/31 10:08:48;;;;;;;6.05;3.33;;;;;;;;;;5089143;28;20071;-60
2021/12/31 10:11:17;;;;;;;5.70;2.40;;;;;;;;;;5089061;28;20130;-60
2021/12/31 10:13:51;;;;;;;5.38;2.08;;;;;;;;;;5088552;28;20021;-61
2021/12/31 10:16:23;;;;;;;4.30;1.85;;;;;;;;;;5069486;28;20051;-57
2021/12/31 10:18:49;;;;;;;3.45;1.88;;;;;;;;;;5088175;28;20036;-58
2021/12/31 10:21:19;;;;;;;4.88;1.70;;;;;;;;;;5088604;28;20382;-57
2021/12/31 10:23:45;;;;;;;5.20;1.65;;;;;;;;;;5089121;28;20082;-57
2021/12/31 10:26:12;;;;;;;4.53;1.67;;;;;;;;;;5089172;28;20475;-57
2021/12/31 10:28:53;;;;;;;4.15;1.80;;;;;;;;;;5088941;28;20028;-57
2021/12/31 10:31:19;;;;;;;6.20;2.30;;;;;;;;;;5088415;28;20056;-58
2021/12/31 10:33:45;;;;;;;10.05;3.35;;;;;;;;;;5088492;28;20063;-58
2021/12/31 10:36:29;;;;;;;9.63;4.70;;;;;;;;;;5088059;28;20036;-57
2021/12/31 10:38:54;;;;;;;9.43;5.50;;;;;;;;;;5088573;28;20115;-57
2021/12/31 10:41:21;;;;;;;10.07;5.20;;;;;;;;;;5088539;28;20139;-58
2021/12/31 10:43:54;;;;;;;11.32;6.45;;;;;;;;;;5088508;28;20043;-55
2021/12/31 10:46:19;;;;;;;11.38;7.35;;;;;;;;;;5090527;28;20055;-55
2021/12/31 10:48:50;;;;;;;12.32;6.80;;;;;;;;;;5090335;28;20509;-58
2021/12/31 10:51:15;;;;;;;12.38;6.20;;;;;;;;;;5089004;28;20032;-57
2021/12/31 10:53:43;;;;;;;9.98;5.43;;;;;;;;;;5088439;28;20539;-58
2021/12/31 10:56:13;;;;;;;15.05;5.70;;;;;;;;;;5070151;28;20036;-57
2021/12/31 10:58:43;;;;;;;9.38;5.75;;;;;;;;;;5088172;28;20044;-58
2021/12/31 11:01:12;;;;;;;11.00;4.45;;;;;;;;;;5088286;28;20111;-57
2021/12/31 11:03:37;;;;;;;10.57;4.25;;;;;;;;;;5088244;28;20040;-57
2021/12/31 11:06:04;;;;;;;7.75;3.88;;;;;;;;;;5088017;28;20044;-56
2021/12/31 11:08:30;;;;;;;5.50;3.53;;;;;;;;;;5090329;28;20583;-58
2021/12/31 11:10:56;;;;;;;5.13;2.55;;;;;;;;;;5090044;28;20051;-56
2021/12/31 11:13:22;;;;;;;6.30;3.10;;;;;;;;;;5090451;28;20123;-56
2021/12/31 11:15:52;;;;;;;6.85;3.15;;;;;;;;;;5089946;28;20024;-55
2021/12/31 11:18:22;;;;;;;6.32;2.95;;;;;;;;;;5089944;28;20046;-56
2021/12/31 11:20:48;;;;;;;6.28;2.90;;;;;;;;;;5089677;28;20036;-56
2021/12/31 11:23:13;;;;;;;8.07;3.10;;;;;;;;;;5071685;28;20093;-57
2021/12/31 11:25:52;;;;;;;6.35;3.80;;;;;;;;;;5071907;28;20552;-55
2021/12/31 11:28:37;;;;;;;5.85;3.75;;;;;;;;;;5090003;28;20036;-56
2021/12/31 11:31:18;;;;;;;7.43;4.53;;;;;;;;;;5089114;28;20808;-57
2021/12/31 11:33:56;;;;;;;6.80;4.75;;;;;;;;;;5088215;28;20029;-56
2021/12/31 11:36:35;;;;;;;9.98;5.97;;;;;;;;;;5089795;28;20471;-57
2021/12/31 11:39:12;;;;;;;9.93;5.40;;;;;;;;;;5089739;28;20043;-57
2021/12/31 11:41:37;;;;;;;9.73;6.30;;;;;;;;;;5089578;28;20186;-57
2021/12/31 11:44:04;;;;;;;8.57;5.22;;;;;;;;;;5089159;28;20075;-58
2021/12/31 11:46:32;;;;;;;7.60;5.07;;;;;;;;;;5070560;28;20044;-70
2021/12/31 11:48:59;;;;;;;6.85;4.05;;;;;;;;;;5088305;28;20028;-68
2021/12/31 11:51:35;;;;;;;7.13;3.88;;;;;;;;;;5087145;28;20044;-70
2021/12/31 11:54:00;;;;;;;5.72;4.00;;;;;;;;;;5070595;28;20028;-65
2021/12/31 11:56:47;;;;;;;7.90;4.72;;;;;;;;;;5085969;28;20038;-69
2021/12/31 11:59:14;;;;;;;7.32;3.75;;;;;;;;;;5051378;28;20056;-69
2021/12/31 12:01:41;;;;;;;6.15;3.13;;;;;;;;;;5048635;28;20036;-69
2021/12/31 12:04:21;;;;;;;6.78;3.55;;;;;;;;;;5048773;28;20028;-69
2021/12/31 12:06:53;;;;;;;5.30;3.30;;;;;;;;;;5066929;28;20041;-70
2021/12/31 12:09:18;;;;;;;4.38;3.05;;;;;;;;;;5066808;28;20038;-69
2021/12/31 12:12:03;;;;;;;7.03;3.90;;;;;;;;;;5067768;28;20036;-66
2021/12/31 12:14:37;;;;;;;7.63;3.63;;;;;;;;;;5068651;28;20498;-69
2021/12/31 12:17:03;;;;;;;6.90;3.38;;;;;;;;;;5067748;28;20055;-69
2021/12/31 12:19:47;;;;;;;5.93;3.15;;;;;;;;;;5068929;28;20033;-68
2021/12/31 12:22:25;;;;;;;6.90;3.42;;;;;;;;;;5050652;28;20048;-69
2021/12/31 12:24:51;;;;;;;5.43;3.42;;;;;;;;;;5033904;28;20068;-70
2021/12/31 12:27:17;;;;;;;4.95;3.22;;;;;;;;;;5068454;28;20102;-70
2021/12/31 12:29:44;;;;;;;6.90;3.00;;;;;;;;;;5050363;28;20036;-67
2021/12/31 12:32:11;;;;;;;8.45;3.35;;;;;;;;;;5050972;28;20182;-68
2021/12/31 12:34:36;;;;;;;4.63;2.75;;;;;;;;;;5033700;28;20498;-71
2021/12/31 12:37:02;;;;;;;4.72;2.50;;;;;;;;;;5068605;28;20064;-71
2021/12/31 12:39:28;;;;;;;5.18;2.95;;;;;;;;;;5068584;28;20064;-70
2021/12/31 12:41:54;;;;;;;5.82;3.50;;;;;;;;;;5050637;28;20051;-69
2021/12/31 12:44:20;;;;;;;4.85;3.00;;;;;;;;;;5067196;28;20097;-69
2021/12/31 12:46:52;;;;;;;4.03;2.67;;;;;;;;;;5050145;28;20081;-70
2021/12/31 12:49:18;;;;;;;4.95;2.85;;;;;;;;;;5050230;28;20036;-66
2021/12/31 12:51:44;;;;;;;5.13;2.97;;;;;;;;;;5050624;28;20045;-69
2021/12/31 12:54:13;;;;;;;4.30;3.03;;;;;;;;;;5050661;28;20043;-69
2021/12/31 12:56:39;;;;;;;;;;;;;;;;;;5034195;28;20040;-67
2021/12/31 12:59:04;;;;;;;4.93;2.63;;;;;;;;;;5068398;28;19916;-68
2021/12/31 13:01:43;;;;;;;9.45;2.72;;;;;;;;;;5049868;28;20276;-69
2021/12/31 13:04:10;;;;;;;4.13;2.50;;;;;;;;;;5068211;28;20036;-70
2021/12/31 13:06:36;;;;;;;4.75;3.00;;;;;;;;;;5033472;28;20032;-70
2021/12/31 13:09:13;;;;;;;5.47;3.10;;;;;;;;;;5050436;28;20029;-70
2021/12/31 13:11:39;;;;;;;5.03;3.15;;;;;;;;;;5050446;28;20380;-65
2021/12/31 13:14:11;;;;;;;6.25;3.47;;;;;;;;;;5068124;28;20412;-67
2021/12/31 13:16:37;;;;;;;5.35;3.60;;;;;;;;;;5068125;28;20059;-70
2021/12/31 13:19:06;;;;;;;5.97;3.42;;;;;;;;;;5066766;28;20072;-69
2021/12/31 13:21:33;;;;;;;8.02;3.70;;;;;;;;;;5050013;28;20035;-69
2021/12/31 13:23:58;;;;;;;5.95;3.50;;;;;;;;;;5068183;28;20044;-68
2021/12/31 13:26:27;;;;;;;6.95;3.90;;;;;;;;;;5068118;28;20071;-70
2021/12/31 13:28:53;;;;;;;;;;;;;;;;;;5068069;28;20043;-70
2021/12/31 13:31:49;;;;;;;8.85;4.00;;;;;;;;;;5049820;28;19913;-69
2021/12/31 13:34:19;;;;;;;5.72;3.92;;;;;;;;;;5037199;28;20044;-70
2021/12/31 13:36:47;;;;;;;5.40;3.90;;;;;;;;;;5049624;28;20049;-69
2021/12/31 13:39:15;;;;;;;8.85;3.78;;;;;;;;;;5067790;28;20383;-69
2021/12/31 13:41:47;;;;;;;6.95;4.15;;;;;;;;;;5067901;28;20025;-64
2021/12/31 13:44:14;;;;;;;6.18;3.78;;;;;;;;;;5068034;28;20538;-70
2021/12/31 13:46:40;;;;;;;5.72;2.97;;;;;;;;;;5032890;28;20074;-69
2021/12/31 13:49:08;;;;;;;6.82;3.35;;;;;;;;;;5067623;28;20039;-70
2021/12/31 13:51:35;;;;;;;5.05;3.22;;;;;;;;;;5049429;28;20487;-69
2021/12/31 13:54:01;;;;;;;6.13;3.20;;;;;;;;;;5050911;28;20036;-69
2021/12/31 13:56:33;;;;;;;4.30;3.10;;;;;;;;;;5084909;28;20089;-66
2021/12/31 13:59:13;;;;;;;6.25;3.15;;;;;;;;;;5054567;28;20047;-67
2021/12/31 14:01:39;;;;;;;4.75;3.08;;;;;;;;;;5054122;28;20122;-66
2021/12/31 14:04:11;;;;;;;4.15;3.20;;;;;;;;;;5089258;28;20130;-69
2021/12/31 14:06:38;;;;;;;4.32;3.28;;;;;;;;;;5054105;28;20046;-69
2021/12/31 14:09:04;;;;;;;5.03;3.20;;;;;;;;;;5071065;28;20478;-71
2021/12/31 14:11:29;;;;;;;5.90;3.30;;;;;;;;;;5089943;28;20127;-68
2021/12/31 14:13:55;;;;;;;6.15;3.40;;;;;;;;;;5090937;28;20111;-70
2021/12/31 14:16:20;;;;;;;6.05;3.60;;;;;;;;;;5090956;28;20043;-67
2021/12/31 14:18:46;;;;;;;6.40;3.85;;;;;;;;;;5091199;28;20153;-70
2021/12/31 14:21:11;;;;;;;4.95;3.20;;;;;;;;;;5090920;28;20036;-69
2021/12/31 14:23:37;;;;;;;5.78;3.35;;;;;;;;;;5090894;28;20040;-69
2021/12/31 14:26:03;;;;;;;5.32;2.97;;;;;;;;;;5072269;28;20074;-70
2021/12/31 14:28:28;;;;;;;6.57;3.75;;;;;;;;;;5090841;28;20082;-69
2021/12/31 14:30:53;;;;;;;6.30;3.60;;;;;;;;;;5070045;28;20475;-68